Allakaket, Alaska
Current Conditions -  °F | °C
As of 11:53 PM on Monday 20 Oct 2014 (Local Time) from PABT Reporting Station
Broken Clouds Broken Clouds  
Wind Chill: 24°   Ceiling: 7000
Heat Index: 32°   Visibility: 10mi
Dew Point: 19°   Wind: 9mph
Humidity: 59%   Direction: 60°ENE
Pressure: 29.42"   Gusts: 18mph
Location:  66.57°N, 152.65°W
Report Text: PABT 210753Z 06008G16KT 10SM BKN070 00/M07 A2942 RMK AO2 SLP975 T00001072
Loading
Personal Weather Stations






























Interactive Weather Map New forecast layout! Learn more

10-Day Weather Forecast

Advertisements
Track Severe Weather on mobile